createdAt,value
2017-09-30T00:01:49.723Z,14.57
2017-09-30T00:04:17.968Z,12.87
2017-09-30T00:06:46.062Z,14.93
2017-09-30T00:09:14.243Z,15.57
2017-09-30T00:11:43.231Z,15.20
2017-09-30T00:14:12.184Z,15.67
2017-09-30T00:16:40.359Z,15.93
2017-09-30T00:19:08.788Z,15.30
2017-09-30T00:21:37.730Z,15.43
2017-09-30T00:24:05.894Z,15.07
2017-09-30T00:26:34.119Z,15.97
2017-09-30T00:29:02.960Z,16.47
2017-09-30T00:31:32.589Z,15.60
2017-09-30T00:34:00.767Z,15.10
2017-09-30T00:36:28.914Z,14.77
2017-09-30T00:38:57.033Z,15.07
2017-09-30T00:41:25.932Z,13.83
2017-09-30T00:43:55.621Z,14.97
2017-09-30T00:46:24.094Z,14.97
2017-09-30T00:48:52.216Z,17.17
2017-09-30T00:51:21.109Z,17.10
2017-09-30T00:53:49.222Z,16.00
2017-09-30T00:56:18.089Z,15.63
2017-09-30T00:58:46.233Z,14.93
2017-09-30T01:01:14.389Z,16.70
2017-09-30T01:03:43.298Z,15.63
2017-09-30T01:06:11.470Z,14.20
2017-09-30T01:08:39.579Z,14.73
2017-09-30T01:11:07.718Z,14.17
2017-09-30T01:13:36.680Z,15.83
2017-09-30T01:16:04.843Z,15.90
2017-09-30T01:18:33.155Z,16.17
2017-09-30T01:21:01.641Z,16.33
2017-09-30T01:23:30.540Z,16.97
2017-09-30T01:25:58.677Z,17.30
2017-09-30T01:28:26.841Z,15.50
2017-09-30T01:30:54.932Z,16.10
2017-09-30T01:33:23.848Z,16.50
2017-09-30T01:35:52.725Z,15.73
2017-09-30T01:38:21.662Z,17.47
2017-09-30T01:40:49.850Z,17.20
2017-09-30T01:43:17.983Z,17.53
2017-09-30T01:45:46.161Z,16.07
2017-09-30T01:48:14.351Z,17.40
2017-09-30T01:50:44.593Z,15.93
2017-09-30T01:53:12.664Z,17.30
2017-09-30T01:55:40.838Z,17.83
2017-09-30T01:58:09.223Z,17.60
2017-09-30T02:00:37.496Z,16.90
2017-09-30T02:03:05.636Z,17.10
2017-09-30T02:05:33.775Z,18.47
2017-09-30T02:08:02.686Z,18.27
2017-09-30T02:10:31.718Z,18.13
2017-09-30T02:12:59.824Z,18.70
2017-09-30T02:15:29.471Z,18.90
2017-09-30T02:17:58.377Z,18.90
2017-09-30T02:20:26.493Z,18.53
2017-09-30T02:22:55.416Z,18.83
2017-09-30T02:25:23.575Z,19.00
2017-09-30T02:27:51.719Z,19.90
2017-09-30T02:30:19.895Z,19.87
2017-09-30T02:32:48.111Z,19.20
2017-09-30T02:35:16.282Z,18.73
2017-09-30T02:37:44.392Z,19.70
2017-09-30T02:40:12.705Z,18.90
2017-09-30T02:42:42.325Z,19.70
2017-09-30T02:45:10.936Z,20.60
2017-09-30T02:47:39.185Z,19.50
2017-09-30T02:50:07.369Z,18.13
2017-09-30T02:52:35.497Z,21.20
2017-09-30T02:55:03.629Z,18.93
2017-09-30T02:57:35.391Z,19.83
2017-09-30T03:00:03.546Z,20.10
2017-09-30T03:02:31.864Z,22.40
2017-09-30T03:05:00.112Z,20.60
2017-09-30T03:07:28.321Z,20.90
2017-09-30T03:09:57.203Z,21.30
2017-09-30T03:12:26.076Z,20.10
2017-09-30T03:14:54.203Z,20.67
2017-09-30T03:17:22.879Z,20.90
2017-09-30T03:19:51.038Z,20.47
2017-09-30T03:22:19.161Z,19.77
2017-09-30T03:24:47.252Z,19.60
2017-09-30T03:27:16.517Z,20.97
2017-09-30T03:29:45.377Z,20.13
2017-09-30T03:32:13.575Z,22.30
2017-09-30T03:34:42.487Z,21.63
2017-09-30T03:37:10.601Z,21.60
2017-09-30T03:39:38.693Z,20.60
2017-09-30T03:42:07.625Z,19.63
2017-09-30T03:44:37.387Z,22.43
2017-09-30T03:47:05.553Z,21.30
2017-09-30T03:49:33.682Z,20.90
2017-09-30T03:52:01.908Z,20.10
2017-09-30T03:54:30.065Z,22.20
2017-09-30T03:56:58.163Z,20.20
2017-09-30T03:59:26.283Z,22.30
2017-09-30T04:01:54.366Z,22.43
2017-09-30T04:04:23.343Z,21.77
2017-09-30T04:06:51.455Z,21.73
2017-09-30T04:09:20.398Z,21.67
2017-09-30T04:11:49.377Z,20.70
2017-09-30T04:14:17.507Z,21.33
2017-09-30T04:16:45.623Z,22.50
2017-09-30T04:19:13.766Z,23.53
2017-09-30T04:21:42.659Z,24.00
2017-09-30T04:24:10.781Z,23.57
2017-09-30T04:26:38.894Z,22.00
2017-09-30T04:29:07.793Z,23.40
2017-09-30T04:31:35.926Z,22.70
2017-09-30T04:34:04.084Z,21.40
2017-09-30T04:36:32.239Z,23.70
2017-09-30T04:39:00.392Z,23.80
2017-09-30T04:41:28.494Z,23.57
2017-09-30T04:43:56.604Z,22.97
2017-09-30T04:46:25.604Z,23.50
2017-09-30T04:48:54.446Z,25.70
2017-09-30T04:51:22.591Z,24.97
2017-09-30T04:53:50.752Z,25.07
2017-09-30T04:56:18.874Z,23.77
2017-09-30T04:58:47.782Z,26.17
2017-09-30T05:01:15.923Z,25.83
2017-09-30T05:03:44.046Z,24.20
2017-09-30T05:06:12.173Z,24.77
2017-09-30T05:08:40.291Z,25.67
2017-09-30T05:11:08.407Z,25.30
2017-09-30T05:13:36.812Z,24.10
2017-09-30T05:16:04.980Z,27.23
2017-09-30T05:18:33.147Z,26.37
2017-09-30T05:21:01.264Z,25.23
2017-09-30T05:23:30.146Z,25.27
2017-09-30T05:25:58.233Z,27.67
2017-09-30T05:28:26.313Z,27.80
2017-09-30T05:30:54.434Z,27.90
2017-09-30T05:33:22.503Z,26.83
2017-09-30T05:35:50.661Z,28.50
2017-09-30T05:38:18.795Z,27.90
2017-09-30T05:40:47.778Z,27.23
2017-09-30T05:43:16.974Z,27.93
2017-09-30T05:45:45.104Z,27.33
2017-09-30T05:48:13.528Z,26.90
2017-09-30T05:50:41.637Z,27.77
2017-09-30T05:53:09.748Z,28.13
2017-09-30T05:55:38.140Z,29.30
2017-09-30T05:58:06.281Z,28.70
2017-09-30T06:00:34.419Z,28.07
2017-09-30T06:03:02.513Z,28.93
2017-09-30T06:05:31.433Z,26.60
2017-09-30T06:07:59.565Z,27.87
2017-09-30T06:10:27.742Z,27.37
2017-09-30T06:12:55.868Z,27.70
2017-09-30T06:15:24.013Z,29.00
2017-09-30T06:17:52.133Z,26.70
2017-09-30T06:20:20.271Z,26.70
2017-09-30T06:22:48.414Z,27.23
2017-09-30T06:25:16.531Z,28.83
2017-09-30T06:27:44.654Z,28.77
2017-09-30T06:30:12.780Z,28.73
2017-09-30T06:32:40.975Z,27.87
2017-09-30T06:35:09.824Z,29.17
2017-09-30T06:37:37.951Z,29.40
2017-09-30T06:40:06.853Z,29.10
2017-09-30T06:42:35.028Z,29.23
2017-09-30T06:45:04.279Z,28.63
2017-09-30T06:47:32.409Z,27.10
2017-09-30T06:50:00.645Z,29.27
2017-09-30T06:52:28.757Z,27.77
2017-09-30T06:54:56.850Z,26.80
2017-09-30T06:57:24.976Z,27.20
2017-09-30T06:59:53.120Z,28.50
2017-09-30T07:02:21.223Z,26.03
2017-09-30T07:04:49.495Z,25.97
2017-09-30T07:07:17.717Z,27.57
2017-09-30T07:09:50.062Z,28.70
2017-09-30T07:12:18.245Z,26.80
2017-09-30T07:14:46.351Z,28.67
2017-09-30T07:17:14.477Z,29.07
2017-09-30T07:19:43.369Z,28.10
2017-09-30T07:22:11.502Z,29.13
2017-09-30T07:24:39.635Z,26.97
2017-09-30T07:27:07.798Z,28.70
2017-09-30T07:29:36.060Z,27.57
2017-09-30T07:32:04.144Z,27.53
2017-09-30T07:34:33.018Z,26.17
2017-09-30T07:37:01.934Z,27.50
2017-09-30T07:39:31.549Z,25.60
2017-09-30T07:41:59.713Z,26.00
2017-09-30T07:44:27.858Z,26.20
2017-09-30T07:46:55.934Z,27.40
2017-09-30T07:49:25.016Z,26.83
2017-09-30T07:51:53.263Z,25.23
2017-09-30T07:54:21.397Z,26.83
2017-09-30T07:56:51.791Z,30.27
2017-09-30T07:59:20.656Z,27.40
2017-09-30T08:01:48.786Z,26.73
2017-09-30T08:04:16.888Z,24.83
2017-09-30T08:06:45.066Z,25.70
2017-09-30T08:09:14.091Z,26.37
2017-09-30T08:11:43.028Z,27.47
2017-09-30T08:14:11.192Z,26.50
2017-09-30T08:16:39.320Z,27.07
2017-09-30T08:19:07.450Z,26.50
2017-09-30T08:21:35.647Z,25.20
2017-09-30T08:24:03.741Z,25.90
2017-09-30T08:26:31.873Z,26.60
2017-09-30T08:28:59.956Z,24.67
2017-09-30T08:31:28.870Z,26.60
2017-09-30T08:33:57.054Z,28.07
2017-09-30T08:36:25.348Z,26.60
2017-09-30T08:38:53.527Z,26.20
2017-09-30T08:41:21.650Z,31.10
2017-09-30T08:43:49.820Z,35.20
2017-09-30T08:46:18.328Z,28.57
2017-09-30T08:48:46.515Z,26.63
2017-09-30T08:51:15.495Z,29.00
2017-09-30T08:53:44.342Z,29.13
2017-09-30T08:56:12.461Z,27.30
2017-09-30T08:58:40.576Z,26.40
2017-09-30T09:01:08.754Z,26.07
2017-09-30T09:03:36.916Z,27.20
2017-09-30T09:06:05.858Z,26.03
2017-09-30T09:08:33.968Z,26.73
2017-09-30T09:11:02.877Z,25.60
2017-09-30T09:13:31.795Z,26.00
2017-09-30T09:16:00.547Z,26.40
2017-09-30T09:18:28.671Z,26.50
2017-09-30T09:20:57.653Z,25.43
2017-09-30T09:23:25.734Z,25.27
2017-09-30T09:25:53.871Z,28.00
2017-09-30T09:28:22.013Z,24.80
2017-09-30T09:30:50.986Z,29.13
2017-09-30T09:33:19.861Z,28.30
2017-09-30T09:35:48.892Z,27.27
2017-09-30T09:38:17.013Z,29.30
2017-09-30T09:40:45.249Z,35.70
2017-09-30T09:43:14.175Z,29.23
2017-09-30T09:45:42.323Z,27.20
2017-09-30T09:48:11.285Z,37.50
2017-09-30T09:50:39.416Z,24.67
2017-09-30T09:53:07.626Z,26.57
2017-09-30T09:55:35.803Z,26.13
2017-09-30T09:58:03.909Z,26.17
2017-09-30T10:00:32.119Z,25.27
2017-09-30T10:03:00.901Z,26.70
2017-09-30T10:05:29.148Z,25.87
2017-09-30T10:07:58.124Z,27.67
2017-09-30T10:10:27.168Z,25.90
2017-09-30T10:12:55.383Z,26.57
2017-09-30T10:15:23.576Z,25.43
2017-09-30T10:17:52.476Z,25.23
2017-09-30T10:20:20.606Z,26.80
2017-09-30T10:22:49.480Z,25.43
2017-09-30T10:25:17.616Z,24.83
2017-09-30T10:27:45.749Z,25.53
2017-09-30T10:30:13.846Z,24.90
2017-09-30T10:32:41.988Z,25.70
2017-09-30T10:35:10.118Z,24.17
2017-09-30T10:37:38.455Z,24.83
2017-09-30T10:40:06.687Z,24.67
2017-09-30T10:42:34.846Z,25.30
2017-09-30T10:45:03.045Z,26.17
2017-09-30T10:47:31.169Z,28.27
2017-09-30T10:50:00.062Z,34.53
2017-09-30T10:52:28.194Z,32.73
2017-09-30T10:54:56.384Z,29.00
2017-09-30T10:57:24.486Z,25.83
2017-09-30T10:59:52.648Z,24.70
2017-09-30T11:02:20.785Z,25.43
2017-09-30T11:04:49.455Z,26.07
2017-09-30T11:07:17.569Z,26.33
2017-09-30T11:09:45.681Z,27.20
2017-09-30T11:12:13.893Z,26.93
2017-09-30T11:14:42.074Z,26.30
2017-09-30T11:17:10.315Z,28.00
2017-09-30T11:19:38.703Z,27.37
2017-09-30T11:22:06.792Z,27.03
2017-09-30T11:24:35.749Z,27.90
2017-09-30T11:27:03.845Z,26.13
2017-09-30T11:29:31.970Z,25.07
2017-09-30T11:32:01.565Z,25.90
2017-09-30T11:34:29.691Z,26.53
2017-09-30T11:36:57.797Z,26.07
2017-09-30T11:39:25.939Z,25.87
2017-09-30T11:41:54.831Z,25.80
2017-09-30T11:44:23.941Z,24.43
2017-09-30T11:46:52.056Z,25.87
2017-09-30T11:49:21.869Z,25.63
2017-09-30T11:51:49.967Z,27.83
2017-09-30T11:54:18.142Z,25.20
2017-09-30T11:56:46.261Z,24.60
2017-09-30T11:59:15.882Z,26.13
2017-09-30T12:01:44.005Z,25.60
2017-09-30T12:04:12.598Z,25.13
2017-09-30T12:06:41.470Z,26.47
2017-09-30T12:09:09.624Z,25.00
2017-09-30T12:11:37.750Z,25.70
2017-09-30T12:14:05.891Z,25.70
2017-09-30T12:16:33.998Z,24.70
2017-09-30T12:19:02.221Z,24.20
2017-09-30T12:21:30.915Z,24.97
2017-09-30T12:23:59.147Z,26.47
2017-09-30T12:26:28.048Z,25.63
2017-09-30T12:28:56.209Z,24.93
2017-09-30T12:31:24.329Z,25.60
2017-09-30T12:33:52.452Z,24.20
2017-09-30T12:36:20.530Z,24.07
2017-09-30T12:38:48.707Z,24.40
2017-09-30T12:41:16.866Z,24.07
2017-09-30T12:43:44.998Z,25.43
2017-09-30T12:46:13.095Z,24.13
2017-09-30T12:48:41.194Z,25.70
2017-09-30T12:51:09.348Z,27.10
2017-09-30T12:53:38.268Z,26.13
2017-09-30T12:56:06.399Z,23.83
2017-09-30T12:58:34.494Z,24.17
2017-09-30T13:01:02.579Z,24.23
2017-09-30T13:03:30.692Z,22.60
2017-09-30T13:05:58.766Z,22.30
2017-09-30T13:08:26.886Z,21.70
2017-09-30T13:10:56.490Z,20.73
2017-09-30T13:13:25.391Z,19.70
2017-09-30T13:15:53.512Z,19.90
2017-09-30T13:18:21.626Z,19.27
2017-09-30T13:20:49.736Z,18.20
2017-09-30T13:23:17.845Z,17.40
2017-09-30T13:25:45.959Z,19.97
2017-09-30T13:28:14.072Z,17.97
2017-09-30T13:30:42.158Z,18.73
2017-09-30T13:33:11.030Z,18.37
2017-09-30T13:35:39.909Z,17.50
2017-09-30T13:38:08.030Z,17.70
2017-09-30T13:40:36.147Z,17.23
2017-09-30T13:43:04.254Z,15.17
2017-09-30T13:45:32.409Z,15.93
2017-09-30T13:48:00.584Z,15.43
2017-09-30T13:50:28.744Z,18.57
2017-09-30T13:52:56.855Z,18.17
2017-09-30T13:55:25.673Z,16.27
2017-09-30T13:57:53.783Z,17.07
2017-09-30T14:00:21.891Z,16.10
2017-09-30T14:02:50.745Z,16.50
2017-09-30T14:05:18.883Z,16.30
2017-09-30T14:07:47.058Z,16.43
2017-09-30T14:10:15.204Z,15.10
2017-09-30T14:12:44.109Z,16.47
2017-09-30T14:15:12.202Z,16.00
2017-09-30T14:17:40.335Z,16.07
2017-09-30T14:20:08.433Z,16.70
2017-09-30T14:22:36.551Z,14.13
2017-09-30T14:25:05.938Z,16.50
2017-09-30T14:27:34.053Z,15.47
2017-09-30T14:30:02.151Z,15.97
2017-09-30T14:32:30.281Z,15.80
2017-09-30T14:34:59.136Z,15.80
2017-09-30T14:37:27.242Z,15.20
2017-09-30T14:39:55.344Z,15.27
2017-09-30T14:42:24.236Z,15.10
2017-09-30T14:44:53.124Z,14.83
2017-09-30T14:47:21.252Z,14.67
2017-09-30T14:49:49.356Z,16.20
2017-09-30T14:52:17.956Z,15.20
2017-09-30T14:54:46.129Z,16.43
2017-09-30T14:57:14.518Z,15.03
2017-09-30T14:59:43.576Z,16.40
2017-09-30T15:02:13.198Z,15.27
2017-09-30T15:04:41.340Z,15.43
2017-09-30T15:07:09.476Z,14.17
2017-09-30T15:09:37.593Z,15.80
2017-09-30T15:12:05.710Z,15.27
2017-09-30T15:14:33.819Z,14.30
2017-09-30T15:17:01.962Z,16.40
2017-09-30T15:19:30.135Z,15.03
2017-09-30T15:21:58.659Z,14.93
2017-09-30T15:24:26.724Z,15.07
2017-09-30T15:26:54.849Z,14.80
2017-09-30T15:29:23.753Z,14.87
2017-09-30T15:31:51.866Z,14.93
2017-09-30T15:34:19.984Z,14.90
2017-09-30T15:36:48.845Z,17.77
2017-09-30T15:39:17.733Z,14.57
2017-09-30T15:41:45.905Z,12.97
2017-09-30T15:44:14.183Z,14.67
2017-09-30T15:46:42.339Z,15.53
2017-09-30T15:49:10.496Z,16.20
2017-09-30T15:51:39.261Z,15.93
2017-09-30T15:54:07.418Z,14.83
2017-09-30T15:56:36.466Z,14.90
2017-09-30T15:59:04.596Z,14.23
2017-09-30T16:01:33.137Z,15.20
2017-09-30T16:04:01.315Z,13.63
2017-09-30T16:06:29.426Z,12.77
2017-09-30T16:08:57.726Z,14.83
2017-09-30T16:11:25.836Z,14.23
2017-09-30T16:13:54.764Z,14.67
2017-09-30T16:16:22.900Z,14.83
2017-09-30T16:18:50.991Z,14.43
2017-09-30T16:21:19.208Z,14.13
2017-09-30T16:23:48.016Z,14.60
2017-09-30T16:26:16.162Z,13.97
2017-09-30T16:28:44.855Z,13.93
2017-09-30T16:31:12.996Z,13.77
2017-09-30T16:33:41.103Z,15.00
2017-09-30T16:36:09.244Z,14.80
2017-09-30T16:38:38.139Z,14.93
2017-09-30T16:41:06.340Z,15.20
2017-09-30T16:43:34.470Z,13.50
2017-09-30T16:46:03.439Z,13.90
2017-09-30T16:48:31.594Z,13.27
2017-09-30T16:50:59.763Z,14.90
2017-09-30T16:53:27.919Z,14.30
2017-09-30T16:55:56.057Z,14.90
2017-09-30T16:58:24.165Z,16.17
2017-09-30T17:00:52.287Z,15.10
2017-09-30T17:03:22.044Z,16.07
2017-09-30T17:05:50.283Z,20.20
2017-09-30T17:08:19.026Z,16.70
2017-09-30T17:10:47.189Z,14.20
2017-09-30T17:13:16.088Z,14.90
2017-09-30T17:15:44.159Z,14.53
2017-09-30T17:18:12.458Z,13.50
2017-09-30T17:20:40.554Z,14.00
2017-09-30T17:23:08.660Z,14.80
2017-09-30T17:25:36.787Z,15.20
2017-09-30T17:28:04.927Z,14.17
2017-09-30T17:30:33.106Z,15.97
2017-09-30T17:33:01.213Z,16.20
2017-09-30T17:35:29.327Z,16.00
2017-09-30T17:37:57.459Z,16.60
2017-09-30T17:40:25.595Z,16.70
2017-09-30T17:42:54.485Z,15.30
2017-09-30T17:45:22.598Z,15.70
2017-09-30T17:47:50.723Z,16.17
2017-09-30T17:50:18.823Z,15.70
2017-09-30T17:52:46.957Z,15.80
2017-09-30T17:55:15.076Z,16.13
2017-09-30T17:57:43.971Z,15.20
2017-09-30T18:00:12.093Z,16.50
2017-09-30T18:02:40.201Z,16.50
2017-09-30T18:05:09.081Z,17.60
2017-09-30T18:07:37.188Z,18.70
2017-09-30T18:10:05.311Z,17.63
2017-09-30T18:12:33.414Z,16.63
2017-09-30T18:15:01.571Z,17.70
2017-09-30T18:17:29.674Z,21.53
2017-09-30T18:19:57.788Z,20.63
2017-09-30T18:22:26.912Z,16.90
2017-09-30T18:24:55.018Z,17.50
2017-09-30T18:27:24.181Z,18.27
2017-09-30T18:29:52.358Z,18.43
2017-09-30T18:32:20.464Z,18.03
2017-09-30T18:34:48.615Z,19.47
2017-09-30T18:37:17.612Z,17.20
2017-09-30T18:39:45.697Z,18.40
2017-09-30T18:42:14.587Z,17.90
2017-09-30T18:44:42.700Z,18.77
2017-09-30T18:47:12.660Z,19.90
2017-09-30T18:49:40.818Z,17.60
2017-09-30T18:52:08.928Z,18.93
2017-09-30T18:54:37.093Z,19.50
2017-09-30T18:57:05.200Z,20.57
2017-09-30T18:59:33.344Z,19.07
2017-09-30T19:02:02.193Z,19.40
2017-09-30T19:04:30.295Z,19.80
2017-09-30T19:06:58.409Z,18.83
2017-09-30T19:09:26.612Z,19.70
2017-09-30T19:11:55.559Z,19.10
2017-09-30T19:14:24.477Z,18.93
2017-09-30T19:16:52.636Z,18.67
2017-09-30T19:19:21.607Z,18.83
2017-09-30T19:21:49.884Z,19.03
2017-09-30T19:24:18.766Z,17.87
2017-09-30T19:26:46.998Z,17.47
2017-09-30T19:29:15.096Z,19.57
2017-09-30T19:31:43.220Z,19.00
2017-09-30T19:34:12.081Z,20.40
2017-09-30T19:36:41.475Z,18.63
2017-09-30T19:39:09.635Z,17.07
2017-09-30T19:41:37.790Z,17.57
2017-09-30T19:44:06.644Z,17.77
2017-09-30T19:46:34.739Z,19.60
2017-09-30T19:49:02.930Z,18.30
2017-09-30T19:51:31.098Z,18.60
2017-09-30T19:54:00.575Z,17.67
2017-09-30T19:56:29.311Z,17.57
2017-09-30T19:58:57.465Z,16.63
2017-09-30T20:01:25.608Z,17.70
2017-09-30T20:03:53.702Z,17.53
2017-09-30T20:06:21.857Z,15.90
2017-09-30T20:08:49.982Z,17.37
2017-09-30T20:11:18.097Z,16.33
2017-09-30T20:13:46.261Z,17.20
2017-09-30T20:16:14.365Z,16.80
2017-09-30T20:18:43.234Z,16.90
2017-09-30T20:21:12.351Z,15.10
2017-09-30T20:23:40.599Z,16.40
2017-09-30T20:26:09.552Z,16.57
2017-09-30T20:28:38.437Z,16.03
2017-09-30T20:31:06.530Z,15.20
2017-09-30T20:33:34.688Z,15.87
2017-09-30T20:36:02.809Z,16.47
2017-09-30T20:38:31.131Z,15.37
2017-09-30T20:40:59.274Z,15.50
2017-09-30T20:43:27.362Z,16.27
2017-09-30T20:45:55.487Z,16.27
2017-09-30T20:48:23.601Z,15.50
2017-09-30T20:50:51.708Z,16.50
2017-09-30T20:53:19.854Z,15.30
2017-09-30T20:55:48.762Z,14.93
2017-09-30T20:58:17.660Z,16.10
2017-09-30T21:00:45.774Z,15.07
2017-09-30T21:03:13.880Z,14.80
2017-09-30T21:05:42.027Z,13.40
2017-09-30T21:08:10.285Z,14.23
2017-09-30T21:10:39.208Z,15.40
2017-09-30T21:13:07.308Z,14.67
2017-09-30T21:15:35.407Z,14.80
2017-09-30T21:18:03.534Z,14.10
2017-09-30T21:20:31.643Z,13.50
2017-09-30T21:22:59.799Z,14.30
2017-09-30T21:25:27.999Z,13.87
2017-09-30T21:27:56.117Z,13.90
2017-09-30T21:30:24.244Z,15.40
2017-09-30T21:32:52.342Z,12.90
2017-09-30T21:35:20.514Z,14.90
2017-09-30T21:37:48.638Z,13.67
2017-09-30T21:40:16.745Z,14.10
2017-09-30T21:42:46.133Z,12.33
2017-09-30T21:45:14.276Z,13.53
2017-09-30T21:47:42.447Z,11.87
2017-09-30T21:50:10.625Z,12.40
2017-09-30T21:52:39.355Z,12.37
2017-09-30T21:55:08.283Z,13.47
2017-09-30T21:57:37.174Z,12.13
2017-09-30T22:00:05.338Z,12.07
2017-09-30T22:02:33.477Z,11.63
2017-09-30T22:05:01.600Z,13.03
2017-09-30T22:07:30.486Z,11.87
2017-09-30T22:09:58.612Z,12.23
2017-09-30T22:12:27.607Z,12.00
2017-09-30T22:14:55.735Z,11.40
2017-09-30T22:17:23.905Z,12.87
2017-09-30T22:19:52.805Z,11.10
2017-09-30T22:22:20.927Z,11.83
2017-09-30T22:24:49.131Z,11.63
2017-09-30T22:27:18.050Z,11.30
2017-09-30T22:29:46.226Z,11.80
2017-09-30T22:32:15.093Z,12.00
2017-09-30T22:34:43.215Z,12.30
2017-09-30T22:37:11.405Z,12.13
2017-09-30T22:39:39.571Z,12.60
2017-09-30T22:42:07.798Z,11.13
2017-09-30T22:44:36.637Z,12.40
2017-09-30T22:47:04.778Z,11.57
2017-09-30T22:49:32.989Z,12.07
2017-09-30T22:52:02.644Z,13.67
2017-09-30T22:54:30.736Z,11.57
2017-09-30T22:56:58.875Z,11.97
2017-09-30T22:59:27.006Z,12.20
2017-09-30T23:01:55.197Z,13.20
2017-09-30T23:04:23.663Z,12.53
2017-09-30T23:06:51.837Z,11.57
2017-09-30T23:09:19.946Z,11.57
2017-09-30T23:11:48.081Z,11.33
2017-09-30T23:14:16.852Z,13.70
2017-09-30T23:16:44.990Z,12.17
2017-09-30T23:19:13.125Z,11.40
2017-09-30T23:21:41.352Z,12.80
2017-09-30T23:24:09.514Z,11.77
2017-09-30T23:26:37.622Z,13.67
2017-09-30T23:29:05.773Z,12.50
2017-09-30T23:31:34.148Z,12.83
2017-09-30T23:34:03.003Z,12.57
2017-09-30T23:36:32.117Z,12.50
2017-09-30T23:39:00.304Z,12.33
2017-09-30T23:41:29.196Z,12.60
2017-09-30T23:43:57.402Z,12.83
2017-09-30T23:46:25.573Z,13.63
2017-09-30T23:48:53.707Z,13.13
2017-09-30T23:51:21.997Z,12.83
2017-09-30T23:53:50.101Z,12.83
2017-09-30T23:56:18.332Z,13.17
2017-09-30T23:58:47.371Z,13.47
